Time;durP1;ratioP1;P1;durP2;ratioP2;P2;SDS_P1;SDS_P2;PMS_P1;PMS_P2;Temp;Humidity;BMP_temperature;BMP_pressure;BME280_temperature;BME280_humidity;BME280_pressure;Samples;Min_cycle;Max_cycle;Signal;HPM_P1;HPM_P2
2023/07/08 00:02:43;;;;;;;2.85;2.40;;;;;;;19.15;53.52;100716.09;10440571;28;20102;-74
2023/07/08 00:07:46;;;;;;;3.92;2.33;;;;;;;18.92;54.78;100699.59;10439168;28;20040;-74
2023/07/08 00:12:52;;;;;;;5.40;2.70;;;;;;;18.83;54.60;100690.59;10434916;28;20041;-74
2023/07/08 00:17:55;;;;;;;4.30;2.88;;;;;;;18.63;53.78;100711.81;10426923;28;20416;-74
2023/07/08 00:23:01;;;;;;;3.08;2.60;;;;;;;18.47;54.36;100700.94;10431670;28;20034;-74
2023/07/08 00:28:10;;;;;;;3.55;2.40;;;;;;;18.73;53.50;100690.75;10435199;28;20083;-74
2023/07/08 00:33:13;;;;;;;4.90;2.72;;;;;;;18.90;52.64;100707.09;10423483;28;20046;-74
2023/07/08 00:38:21;;;;;;;2.78;2.00;;;;;;;18.83;52.82;100693.31;10421861;28;20045;-73
2023/07/08 00:43:39;;;;;;;4.22;2.33;;;;;;;18.95;52.36;100681.06;10437080;28;20040;-74
2023/07/08 00:48:43;;;;;;;2.67;2.45;;;;;;;18.88;52.37;100688.22;10424782;28;20041;-74
2023/07/08 00:53:46;;;;;;;3.08;2.33;;;;;;;18.92;53.14;100688.72;10429046;28;20044;-73
2023/07/08 00:58:55;;;;;;;7.85;2.70;;;;;;;18.86;52.78;100683.97;10423720;28;20477;-74
2023/07/08 01:04:02;;;;;;;4.50;2.70;;;;;;;18.72;52.80;100680.88;10417738;28;20049;-74
2023/07/08 01:09:05;;;;;;;3.47;2.20;;;;;;;18.58;53.06;100678.84;10421234;28;20042;-73
2023/07/08 01:14:17;;;;;;;4.18;2.45;;;;;;;18.50;53.13;100663.34;10424498;28;20051;-74
2023/07/08 01:19:32;;;;;;;3.88;2.97;;;;;;;18.52;53.30;100663.19;10436174;28;20041;-74
2023/07/08 01:24:39;;;;;;;2.40;2.20;;;;;;;18.54;53.22;100678.34;10437742;28;20045;-73
2023/07/08 01:29:42;;;;;;;4.25;2.40;;;;;;;18.51;53.84;100666.91;10422689;28;20160;-74
2023/07/08 01:34:59;;;;;;;4.90;2.35;;;;;;;18.39;54.32;100665.56;10430540;28;20493;-74
2023/07/08 01:40:23;;;;;;;4.38;2.25;;;;;;;18.34;53.74;100664.19;10437451;28;20448;-74
2023/07/08 01:45:30;;;;;;;6.45;2.53;;;;;;;18.29;53.00;100658.44;10438299;28;20055;-73
2023/07/08 01:50:37;;;;;;;5.97;2.25;;;;;;;18.29;52.87;100655.72;10433557;28;20176;-73
2023/07/08 01:55:41;;;;;;;3.70;2.72;;;;;;;18.21;53.39;100658.41;10429633;28;20051;-74
2023/07/08 02:00:44;;;;;;;2.83;2.33;;;;;;;18.15;53.23;100656.34;10428797;28;20045;-74
2023/07/08 02:05:47;;;;;;;2.85;2.53;;;;;;;17.96;53.58;100643.88;10423982;28;20025;-74
2023/07/08 02:10:53;;;;;;;4.25;2.72;;;;;;;18.00;53.84;100641.72;10428738;28;20041;-74
2023/07/08 02:15:56;;;;;;;4.70;2.95;;;;;;;17.87;54.16;100648.44;10433463;28;20125;-74
2023/07/08 02:20:59;;;;;;;2.95;2.33;;;;;;;17.86;54.20;100641.31;10432522;28;20049;-73
2023/07/08 02:26:04;;;;;;;4.05;2.60;;;;;;;17.83;54.34;100630.78;10435327;28;20075;-74
2023/07/08 02:31:07;;;;;;;3.33;2.20;;;;;;;17.72;54.61;100631.09;10432880;28;20041;-74
2023/07/08 02:36:10;;;;;;;2.88;2.30;;;;;;;17.78;55.06;100624.16;10426172;28;20049;-74
2023/07/08 02:41:14;;;;;;;5.13;2.70;;;;;;;17.79;55.26;100621.25;10424000;28;20045;-74
2023/07/08 02:46:17;;;;;;;4.20;2.65;;;;;;;17.63;55.23;100623.91;10431494;28;20468;-74
2023/07/08 02:51:20;;;;;;;3.63;3.05;;;;;;;17.60;55.48;100624.25;10439038;28;20045;-72
2023/07/08 02:56:26;;;;;;;5.68;3.13;;;;;;;17.44;55.59;100625.03;10437112;28;20037;-74
2023/07/08 03:01:29;;;;;;;5.85;2.40;;;;;;;17.38;56.32;100620.25;10436707;28;20040;-74
2023/07/08 03:06:32;;;;;;;3.30;3.00;;;;;;;17.46;56.46;100633.88;10433261;28;20053;-74
2023/07/08 03:11:37;;;;;;;4.13;3.10;;;;;;;17.17;56.78;100628.84;10430397;28;20080;-73
2023/07/08 03:16:40;;;;;;;5.65;3.15;;;;;;;16.82;58.53;100627.91;10438048;28;20090;-74
2023/07/08 03:21:43;;;;;;;3.78;3.03;;;;;;;16.74;58.93;100625.97;10429372;28;20131;-73
2023/07/08 03:26:47;;;;;;;4.25;2.67;;;;;;;16.57;59.83;100630.44;10434689;28;20111;-74
2023/07/08 03:31:50;;;;;;;3.78;3.00;;;;;;;16.33;61.41;100643.78;10433571;28;20118;-73
2023/07/08 03:36:54;;;;;;;5.03;3.00;;;;;;;16.62;60.88;100634.53;10434347;28;20045;-73
2023/07/08 03:41:58;;;;;;;3.85;3.45;;;;;;;16.78;60.18;100624.66;10431132;28;20048;-73
2023/07/08 03:47:01;;;;;;;5.88;2.92;;;;;;;16.96;59.57;100619.16;10420506;28;20048;-73
2023/07/08 03:52:05;;;;;;;4.18;2.90;;;;;;;17.05;59.16;100628.19;10422451;28;20123;-74
2023/07/08 03:57:10;;;;;;;3.10;2.80;;;;;;;17.04;59.22;100627.34;10428278;28;20064;-74
2023/07/08 04:02:13;;;;;;;4.93;2.83;;;;;;;17.19;59.12;100626.78;10432974;28;20428;-73
2023/07/08 04:07:16;;;;;;;3.67;2.60;;;;;;;17.01;59.78;100633.09;10434095;28;20041;-74
2023/07/08 04:12:20;;;;;;;5.40;2.60;;;;;;;17.13;58.92;100627.41;10430690;28;20049;-74
2023/07/08 04:17:23;;;;;;;3.15;2.83;;;;;;;17.30;58.71;100628.38;10426522;28;20122;-74
2023/07/08 04:22:26;;;;;;;4.72;2.70;;;;;;;17.35;58.08;100637.72;10422290;28;20664;-72
2023/07/08 04:27:31;;;;;;;3.35;2.58;;;;;;;17.49;58.89;100633.53;10424609;28;20034;-73
2023/07/08 04:32:34;;;;;;;2.85;2.47;;;;;;;17.64;58.95;100641.94;10429185;28;20048;-73
2023/07/08 04:37:38;;;;;;;4.25;2.58;;;;;;;17.80;58.75;100639.28;10431247;28;20053;-73
2023/07/08 04:42:44;;;;;;;5.35;3.00;;;;;;;17.96;58.40;100646.59;10433307;28;20424;-73
2023/07/08 04:47:52;;;;;;;5.38;2.70;;;;;;;17.89;57.82;100654.56;10433093;28;20168;-74
2023/07/08 04:52:55;;;;;;;4.75;2.50;;;;;;;17.58;58.63;100667.00;10431347;28;20044;-73
2023/07/08 04:58:01;;;;;;;5.07;2.70;;;;;;;17.82;58.88;100653.53;10431853;28;20094;-73
2023/07/08 05:03:04;;;;;;;7.20;3.35;;;;;;;17.93;58.61;100650.50;10432681;28;20037;-73
2023/07/08 05:08:08;;;;;;;3.10;2.78;;;;;;;18.25;58.27;100651.63;10431554;28;20044;-73
2023/07/08 05:13:12;;;;;;;5.00;3.15;;;;;;;18.47;57.18;100644.66;10434247;28;20045;-73
2023/07/08 05:18:15;;;;;;;5.13;2.90;;;;;;;18.64;57.40;100639.22;10434542;28;20093;-74
2023/07/08 05:23:18;;;;;;;3.63;3.00;;;;;;;18.66;57.34;100646.19;10434371;28;20044;-73
2023/07/08 05:28:24;;;;;;;5.38;3.45;;;;;;;18.79;56.11;100649.28;10429589;28;20047;-73
2023/07/08 05:33:29;;;;;;;7.35;3.10;;;;;;;18.91;56.12;100643.47;10421899;28;20108;-74
2023/07/08 05:38:32;;;;;;;6.93;2.95;;;;;;;19.15;54.49;100635.25;10426150;28;20103;-74
2023/07/08 05:43:36;;;;;;;3.50;3.10;;;;;;;19.41;54.37;100636.84;10429692;28;20045;-73
2023/07/08 05:48:39;;;;;;;6.78;3.10;;;;;;;19.67;53.34;100640.19;10436561;28;20527;-73
2023/07/08 05:53:42;;;;;;;6.60;2.78;;;;;;;19.84;52.17;100635.50;10433641;28;20451;-74
2023/07/08 05:58:46;;;;;;;5.00;2.60;;;;;;;19.94;51.39;100637.13;10435081;28;20099;-73
2023/07/08 06:03:49;;;;;;;7.45;2.88;;;;;;;20.24;51.01;100624.50;10429871;28;20455;-73
2023/07/08 06:08:52;;;;;;;4.78;2.80;;;;;;;20.50;50.46;100635.06;10429641;28;20125;-74
2023/07/08 06:13:57;;;;;;;4.45;2.80;;;;;;;20.63;49.75;100631.72;10428914;28;20044;-74
2023/07/08 06:19:00;;;;;;;4.43;3.33;;;;;;;20.86;50.09;100620.75;10443152;28;20079;-74
2023/07/08 06:24:04;;;;;;;5.28;3.13;;;;;;;20.99;48.32;100621.81;10444732;28;20041;-73
2023/07/08 06:29:08;;;;;;;10.43;3.05;;;;;;;21.18;48.33;100617.69;10445162;28;21240;-74
2023/07/08 06:34:11;;;;;;;4.95;3.00;;;;;;;21.32;47.86;100621.47;10440528;28;20048;-74
2023/07/08 06:39:14;;;;;;;6.15;2.95;;;;;;;21.74;48.15;100622.63;10438070;28;20079;-74
2023/07/08 06:44:18;;;;;;;3.45;3.00;;;;;;;22.08;46.45;100622.00;10429725;28;20045;-75
2023/07/08 06:49:21;;;;;;;6.90;2.97;;;;;;;22.34;46.65;100618.66;10435827;28;20504;-75
2023/07/08 06:54:24;;;;;;;6.28;2.97;;;;;;;22.59;45.18;100623.75;10440752;28;20405;-74
2023/07/08 06:59:29;;;;;;;4.72;2.80;;;;;;;22.80;45.60;100630.25;10443865;28;20036;-75
2023/07/08 07:04:32;;;;;;;2.88;2.63;;;;;;;23.03;44.17;100628.06;10443901;28;20086;-75
2023/07/08 07:09:35;;;;;;;3.45;3.00;;;;;;;23.21;43.50;100628.44;10435636;28;20077;-73
2023/07/08 07:14:39;;;;;;;3.83;2.53;;;;;;;23.45;43.01;100631.75;10435911;28;20075;-75
2023/07/08 07:19:45;;;;;;;5.57;2.72;;;;;;;23.79;42.58;100622.63;10433405;28;20133;-74
2023/07/08 07:24:48;;;;;;;3.92;2.67;;;;;;;24.22;42.73;100627.81;10437387;28;20060;-75
2023/07/08 07:29:53;;;;;;;4.07;2.70;;;;;;;24.95;41.20;100621.50;10448300;28;20048;-75
2023/07/08 07:34:57;;;;;;;2.88;2.47;;;;;;;25.97;39.52;100621.81;10448820;28;20053;-74
2023/07/08 07:40:00;;;;;;;4.45;2.67;;;;;;;27.04;36.89;100624.63;10448888;28;20072;-74
2023/07/08 07:45:05;;;;;;;2.80;2.45;;;;;;;27.80;36.14;100632.44;10446772;28;20048;-74
2023/07/08 07:50:09;;;;;;;4.47;2.90;;;;;;;28.37;35.12;100626.56;10443408;28;20037;-75
2023/07/08 07:55:12;;;;;;;3.22;2.90;;;;;;;28.41;35.19;100625.00;10467790;28;20100;-74
2023/07/08 08:00:17;;;;;;;44.35;3.53;;;;;;;28.89;34.80;100621.25;10446053;28;20116;-74
2023/07/08 08:05:20;;;;;;;3.10;2.78;;;;;;;28.80;34.82;100625.47;10448087;28;20061;-74
2023/07/08 08:10:23;;;;;;;5.18;3.28;;;;;;;28.33;35.79;100622.63;10449656;28;20037;-75
2023/07/08 08:15:27;;;;;;;3.45;2.63;;;;;;;28.24;35.33;100619.31;10439645;28;20040;-74
2023/07/08 08:20:30;;;;;;;2.97;2.72;;;;;;;28.25;36.04;100623.78;10435932;28;20044;-75
2023/07/08 08:25:33;;;;;;;6.28;3.17;;;;;;;28.46;35.38;100613.25;10423679;28;20052;-75
2023/07/08 08:30:37;;;;;;;4.85;3.17;;;;;;;28.19;35.33;100621.09;10438322;28;20045;-74
2023/07/08 08:35:40;;;;;;;3.53;2.88;;;;;;;28.31;35.20;100626.69;10443334;28;20076;-74
2023/07/08 08:40:44;;;;;;;4.50;3.30;;;;;;;28.77;34.82;100625.94;10446336;28;20041;-75
2023/07/08 08:45:54;;;;;;;4.43;2.92;;;;;;;28.87;33.95;100622.56;10446446;28;20059;-75
2023/07/08 08:51:04;;;;;;;5.05;2.90;;;;;;;28.71;34.35;100605.59;10444980;28;20045;-74
2023/07/08 08:56:13;;;;;;;3.10;2.90;;;;;;;28.92;35.51;100618.00;10438021;28;20519;-74
2023/07/08 09:01:18;;;;;;;5.80;3.08;;;;;;;29.14;34.64;100617.41;10444649;28;20094;-74
2023/07/08 09:06:25;;;;;;;3.53;2.83;;;;;;;29.11;34.69;100618.75;10445546;28;20096;-74
2023/07/08 09:11:41;;;;;;;3.78;2.85;;;;;;;29.31;34.97;100623.88;10445614;28;20029;-75
2023/07/08 09:16:53;;;;;;;3.00;2.70;;;;;;;29.90;34.89;100620.97;10446546;28;20041;-75
2023/07/08 09:22:00;;;;;;;;;;;;;;;30.28;33.01;100613.97;10447227;28;20271;-75
2023/07/08 09:27:03;;;;;;;7.53;3.40;;;;;;;30.16;32.72;100621.47;10444123;28;19921;-75
2023/07/08 09:32:17;;;;;;;4.50;2.97;;;;;;;30.52;32.39;100611.84;10440578;28;20048;-75
2023/07/08 09:37:28;;;;;;;4.90;3.10;;;;;;;30.10;32.98;100614.13;10443989;28;20049;-75
2023/07/08 09:42:35;;;;;;;5.50;3.15;;;;;;;29.63;34.10;100615.19;10432515;28;20056;-75
2023/07/08 09:47:40;;;;;;;7.00;3.22;;;;;;;29.37;35.32;100606.31;10441854;28;20041;-75
2023/07/08 09:52:43;;;;;;;6.35;3.80;;;;;;;29.56;35.15;100614.44;10448860;28;20385;-75
2023/07/08 09:57:49;;;;;;;3.92;3.50;;;;;;;30.31;33.33;100604.31;10449758;28;20106;-74
2023/07/08 10:02:56;;;;;;;4.05;3.47;;;;;;;30.79;32.33;100616.75;10443089;28;20037;-75
2023/07/08 10:07:59;;;;;;;3.60;3.30;;;;;;;31.00;32.49;100621.50;10449128;28;20068;-75
2023/07/08 10:13:10;;;;;;;4.22;3.20;;;;;;;31.26;32.29;100617.19;10449869;28;20045;-74
2023/07/08 10:18:16;;;;;;;4.55;2.88;;;;;;;32.08;32.32;100618.16;10441851;28;20065;-75
2023/07/08 10:23:35;;;;;;;4.68;3.30;;;;;;;32.27;31.06;100618.66;10450759;28;20086;-75
2023/07/08 10:28:48;;;;;;;4.18;3.70;;;;;;;32.39;31.05;100605.44;10454071;28;20098;-75
2023/07/08 10:34:13;;;;;;;5.35;3.53;;;;;;;32.56;30.08;100607.25;10452146;28;20056;-75
2023/07/08 10:39:40;;;;;;;5.10;3.40;;;;;;;32.96;30.71;100595.59;10448318;28;20116;-75
2023/07/08 10:44:55;;;;;;;8.30;3.97;;;;;;;32.82;30.40;100595.22;10452498;28;20098;-75
2023/07/08 10:50:14;;;;;;;4.22;3.80;;;;;;;33.28;30.14;100600.25;10449599;28;20504;-75
2023/07/08 10:55:30;;;;;;;4.90;3.28;;;;;;;33.87;29.76;100590.72;10451720;28;20041;-76
2023/07/08 11:00:42;;;;;;;4.55;3.40;;;;;;;33.91;28.59;100586.28;10441686;28;20053;-76
2023/07/08 11:05:47;;;;;;;;;;;;;;;33.90;27.79;100591.03;10451225;28;20041;-75
2023/07/08 11:10:53;;;;;;;6.90;3.45;;;;;;;33.33;26.95;100591.94;10447231;28;19927;-75
2023/07/08 11:16:20;;;;;;;4.60;3.83;;;;;;;33.68;26.84;100580.09;10450004;28;20041;-75
2023/07/08 11:21:29;;;;;;;4.28;3.92;;;;;;;34.19;26.41;100576.59;10449812;28;20037;-75
2023/07/08 11:26:39;;;;;;;6.07;4.35;;;;;;;34.40;26.29;100571.84;10440333;28;20211;-75
2023/07/08 11:31:42;;;;;;;4.18;3.78;;;;;;;34.33;25.46;100566.53;10447749;28;20094;-75
2023/07/08 11:36:48;;;;;;;6.38;4.20;;;;;;;34.18;26.03;100567.38;10444177;28;20045;-76
2023/07/08 11:42:03;;;;;;;6.78;3.88;;;;;;;34.63;25.27;100556.50;10439908;28;20500;-76
2023/07/08 11:47:16;;;;;;;5.38;3.88;;;;;;;34.69;23.17;100555.38;10441047;28;20045;-76
2023/07/08 11:52:24;;;;;;;5.40;3.88;;;;;;;34.68;22.92;100550.94;10432707;28;20041;-76
2023/07/08 11:57:30;;;;;;;5.30;4.00;;;;;;;34.88;22.89;100546.41;10439779;28;20456;-76
2023/07/08 12:02:49;;;;;;;4.32;3.95;;;;;;;34.99;23.90;100539.69;10439826;28;20392;-76
2023/07/08 12:07:57;;;;;;;6.28;3.90;;;;;;;35.46;22.55;100546.75;10452749;28;20077;-76
2023/07/08 12:13:00;;;;;;;4.97;3.85;;;;;;;35.75;23.10;100549.69;10443556;28;20051;-76
2023/07/08 12:18:10;;;;;;;4.57;4.13;;;;;;;35.39;22.63;100543.47;10440552;28;20571;-75
2023/07/08 12:23:16;;;;;;;4.60;3.75;;;;;;;35.58;22.25;100529.69;10446517;28;20044;-75
2023/07/08 12:28:21;;;;;;;4.57;3.72;;;;;;;35.78;21.68;100531.50;10443661;28;20029;-75
2023/07/08 12:33:29;;;;;;;6.43;4.30;;;;;;;35.59;22.65;100525.78;10447471;28;20063;-75
2023/07/08 12:38:38;;;;;;;4.25;3.85;;;;;;;36.15;22.91;100517.84;10451096;28;20041;-74
2023/07/08 12:43:41;;;;;;;4.35;3.88;;;;;;;35.81;22.09;100522.56;10447083;28;20063;-75
2023/07/08 12:48:43;;;;;;;11.82;5.63;;;;;;;35.65;21.37;100517.06;10448603;28;20565;-75
2023/07/08 12:53:48;;;;;;;4.45;4.05;;;;;;;35.49;22.14;100521.06;10444396;28;20411;-75
2023/07/08 12:58:54;;;;;;;9.15;4.13;;;;;;;36.03;22.37;100517.38;10440745;28;20047;-75
2023/07/08 13:04:01;;;;;;;5.00;3.80;;;;;;;35.85;20.74;100518.91;10442872;28;20411;-75
2023/07/08 13:09:10;;;;;;;4.57;3.90;;;;;;;36.12;21.50;100512.84;10446023;28;20044;-75
2023/07/08 13:14:15;;;;;;;4.57;4.10;;;;;;;36.32;22.11;100511.81;10449833;28;20523;-76
2023/07/08 13:19:18;;;;;;;4.88;4.40;;;;;;;37.17;21.77;100501.09;10445164;28;20037;-75
2023/07/08 13:24:32;;;;;;;6.65;4.00;;;;;;;37.38;21.53;100498.88;10445251;28;20041;-75
2023/07/08 13:29:36;;;;;;;4.53;3.70;;;;;;;36.68;21.58;100505.03;10445132;28;20617;-74
2023/07/08 13:34:40;;;;;;;7.55;4.70;;;;;;;36.72;21.89;100504.13;10447261;28;20037;-75
2023/07/08 13:39:46;;;;;;;6.03;4.22;;;;;;;36.33;22.12;100501.44;10446697;28;20041;-75
2023/07/08 13:44:50;;;;;;;7.38;4.55;;;;;;;36.83;22.61;100496.47;10446260;28;20124;-75
2023/07/08 13:49:59;;;;;;;5.43;4.60;;;;;;;36.35;21.66;100496.41;10443465;28;20056;-75
2023/07/08 13:55:16;;;;;;;5.10;4.60;;;;;;;37.02;21.66;100496.53;10438299;28;20041;-75
2023/07/08 14:00:21;;;;;;;5.65;4.53;;;;;;;36.97;21.74;100497.44;10443944;28;20064;-75
2023/07/08 14:05:25;;;;;;;4.88;4.13;;;;;;;36.97;22.06;100500.25;10444395;28;20037;-75
2023/07/08 14:10:29;;;;;;;6.45;4.47;;;;;;;36.68;21.88;100503.06;10442614;28;20037;-75
2023/07/08 14:15:32;;;;;;;5.40;4.63;;;;;;;35.86;22.11;100498.19;10448653;28;20524;-75
2023/07/08 14:20:35;;;;;;;7.70;4.80;;;;;;;36.33;22.81;100502.28;10444581;28;20591;-75
2023/07/08 14:25:39;;;;;;;5.53;4.35;;;;;;;36.41;22.39;100489.66;10448176;28;20455;-75
2023/07/08 14:30:45;;;;;;;7.53;4.95;;;;;;;36.72;22.21;100492.09;10443066;28;20037;-75
2023/07/08 14:35:48;;;;;;;4.57;4.18;;;;;;;36.52;22.10;100502.41;10446167;28;20044;-75
2023/07/08 14:40:52;;;;;;;5.50;4.15;;;;;;;37.25;21.86;100497.66;10453454;28;20041;-75
2023/07/08 14:45:57;;;;;;;6.18;4.90;;;;;;;37.20;21.77;100480.91;10453851;28;20049;-75
2023/07/08 14:51:00;;;;;;;7.07;4.88;;;;;;;36.57;22.04;100499.56;10448235;28;20045;-75
2023/07/08 14:56:12;;;;;;;5.53;4.53;;;;;;;37.06;22.14;100494.81;10441605;28;20068;-75
2023/07/08 15:01:19;;;;;;;4.75;4.35;;;;;;;36.78;22.84;100493.69;10456142;28;20037;-75
2023/07/08 15:06:24;;;;;;;5.22;4.25;;;;;;;37.15;21.83;100487.41;10452988;28;20049;-75
2023/07/08 15:11:28;;;;;;;6.00;4.55;;;;;;;36.69;21.55;100478.72;10454688;28;20045;-75
2023/07/08 15:16:31;;;;;;;5.30;4.60;;;;;;;36.80;21.90;100497.06;10448613;28;20420;-77
2023/07/08 15:21:34;;;;;;;4.88;4.47;;;;;;;36.57;22.52;100495.94;10449178;28;20049;-76
2023/07/08 15:26:38;;;;;;;5.53;5.03;;;;;;;35.99;22.73;100491.16;10450552;28;20067;-76
2023/07/08 15:31:41;;;;;;;9.15;5.35;;;;;;;36.42;22.05;100482.09;10448160;28;20045;-76
2023/07/08 15:36:44;;;;;;;5.60;5.10;;;;;;;36.41;22.41;100495.25;10449562;28;20098;-76
2023/07/08 15:41:48;;;;;;;8.38;4.93;;;;;;;36.38;22.84;100493.03;10449492;28;20471;-76
2023/07/08 15:46:52;;;;;;;6.10;4.70;;;;;;;36.30;22.23;100494.47;10448990;28;20052;-76
2023/07/08 15:51:55;;;;;;;5.88;4.95;;;;;;;36.24;22.70;100495.66;10450663;28;20033;-76
2023/07/08 15:56:59;;;;;;;8.15;4.85;;;;;;;36.90;22.49;100493.34;10452510;28;20045;-77
2023/07/08 16:02:12;;;;;;;7.88;4.93;;;;;;;37.11;22.25;100485.50;10438050;28;20048;-77
2023/07/08 16:07:16;;;;;;;5.93;5.00;;;;;;;36.21;22.58;100490.66;10440952;28;20068;-77
2023/07/08 16:12:22;;;;;;;6.53;5.50;;;;;;;36.66;22.80;100482.13;10450103;28;20036;-77
2023/07/08 16:17:25;;;;;;;6.47;4.75;;;;;;;36.99;22.39;100474.75;10449177;28;20040;-76
2023/07/08 16:22:28;;;;;;;7.25;5.38;;;;;;;37.41;22.92;100471.09;10420589;28;20076;-76
2023/07/08 16:27:32;;;;;;;5.53;4.97;;;;;;;37.03;22.26;100475.81;10412006;28;20045;-75
2023/07/08 16:32:35;;;;;;;5.85;5.22;;;;;;;37.28;22.42;100471.88;10396025;28;20044;-76
2023/07/08 16:37:38;;;;;;;7.57;5.75;;;;;;;37.08;22.49;100461.72;10420399;28;20137;-76
2023/07/08 16:42:44;;;;;;;5.25;4.57;;;;;;;40.24;20.90;100465.09;10427916;28;20040;-76
2023/07/08 16:47:48;;;;;;;10.30;5.65;;;;;;;43.39;18.09;100456.00;10414770;28;20566;-76
2023/07/08 16:52:51;;;;;;;8.48;5.00;;;;;;;44.64;17.55;100454.03;10418079;28;20040;-76
2023/07/08 16:57:55;;;;;;;7.55;6.68;;;;;;;45.48;17.39;100457.16;10393229;28;20072;-77
2023/07/08 17:02:58;;;;;;;10.93;9.07;;;;;;;45.64;16.80;100456.34;10402043;28;20038;-76
2023/07/08 17:08:02;;;;;;;10.23;7.93;;;;;;;45.87;16.93;100462.31;10398772;28;20038;-75
2023/07/08 17:13:06;;;;;;;10.38;6.88;;;;;;;45.47;16.54;100461.13;10390569;28;20053;-76
2023/07/08 17:18:18;;;;;;;7.68;5.63;;;;;;;43.93;17.20;100458.84;10414611;28;20049;-75
2023/07/08 17:23:23;;;;;;;8.95;5.30;;;;;;;45.46;17.15;100450.97;10443469;28;20574;-75
2023/07/08 17:28:28;;;;;;;5.60;4.97;;;;;;;46.35;17.13;100446.16;10434817;28;20051;-75
2023/07/08 17:33:31;;;;;;;5.97;5.00;;;;;;;44.96;17.65;100446.63;10433802;28;20041;-75
2023/07/08 17:38:46;;;;;;;7.60;5.50;;;;;;;43.45;18.88;100439.66;10428981;28;20527;-75
2023/07/08 17:43:50;;;;;;;7.00;4.80;;;;;;;44.21;18.76;100439.22;10425710;28;20049;-76
2023/07/08 17:48:53;;;;;;;5.93;5.32;;;;;;;44.48;18.67;100443.41;10434227;28;20060;-75
2023/07/08 17:53:56;;;;;;;5.82;5.22;;;;;;;43.14;19.25;100432.41;10446628;28;20052;-75
2023/07/08 17:59:02;;;;;;;6.63;5.22;;;;;;;38.58;22.68;100431.00;10445533;28;20052;-75
2023/07/08 18:04:05;;;;;;;6.50;5.70;;;;;;;35.51;25.43;100449.00;10442170;28;20075;-75
2023/07/08 18:09:08;;;;;;;5.82;5.25;;;;;;;33.60;27.46;100451.66;10434186;28;20069;-75
2023/07/08 18:14:13;;;;;;;6.82;4.97;;;;;;;32.32;28.68;100443.63;10445315;28;20123;-75
2023/07/08 18:19:16;;;;;;;7.18;5.70;;;;;;;31.80;29.78;100438.78;10445821;28;20046;-75
2023/07/08 18:24:19;;;;;;;6.22;5.63;;;;;;;31.41;30.14;100449.22;10438742;28;20389;-76
2023/07/08 18:29:23;;;;;;;7.85;5.28;;;;;;;31.04;30.32;100449.88;10446244;28;20393;-77
2023/07/08 18:34:26;;;;;;;7.70;5.80;;;;;;;30.71;30.75;100456.38;10443783;28;20033;-77
2023/07/08 18:39:29;;;;;;;8.98;6.22;;;;;;;30.43;31.42;100460.97;10441395;28;20106;-77
2023/07/08 18:44:35;;;;;;;8.57;5.80;;;;;;;30.19;31.72;100461.16;10446354;28;20033;-77
2023/07/08 18:49:38;;;;;;;7.70;5.57;;;;;;;29.88;32.22;100467.28;10442514;28;20060;-77
2023/07/08 18:54:41;;;;;;;5.93;5.32;;;;;;;29.65;32.42;100466.34;10437898;28;20091;-77
2023/07/08 18:59:46;;;;;;;7.03;5.40;;;;;;;29.47;32.64;100461.81;10441717;28;20466;-76
2023/07/08 19:04:49;;;;;;;7.90;5.45;;;;;;;29.29;33.51;100460.09;10457503;28;20041;-76
2023/07/08 19:09:51;;;;;;;7.95;5.57;;;;;;;29.09;33.70;100470.75;10454495;28;20048;-76
2023/07/08 19:14:56;;;;;;;6.68;5.68;;;;;;;28.97;33.68;100478.22;10453795;28;20051;-75
2023/07/08 19:19:59;;;;;;;9.35;5.50;;;;;;;28.78;33.92;100483.91;10447278;28;20041;-77
2023/07/08 19:25:02;;;;;;;10.18;5.90;;;;;;;28.69;34.68;100486.19;10444617;28;20045;-76
2023/07/08 19:30:10;;;;;;;9.50;5.18;;;;;;;28.57;34.73;100493.63;10453242;28;20045;-76
2023/07/08 19:35:14;;;;;;;12.63;5.47;;;;;;;28.40;35.40;100490.75;10452978;28;20102;-77
2023/07/08 19:40:19;;;;;;;10.13;5.97;;;;;;;28.24;35.54;100492.28;10452973;28;20045;-75
2023/07/08 19:45:25;;;;;;;6.43;5.10;;;;;;;28.15;35.91;100501.19;10443160;28;20037;-75
2023/07/08 19:50:29;;;;;;;7.90;5.80;;;;;;;28.04;35.95;100519.41;10449063;28;20562;-75
2023/07/08 19:55:32;;;;;;;10.75;5.82;;;;;;;27.90;36.06;100527.03;10449777;28;20334;-75
2023/07/08 20:00:43;;;;;;;14.27;5.70;;;;;;;27.76;36.63;100537.41;10451486;28;20044;-75
2023/07/08 20:05:46;;;;;;;13.25;5.75;;;;;;;27.70;36.44;100541.13;10449881;28;20036;-75
2023/07/08 20:10:53;;;;;;;8.82;5.82;;;;;;;27.58;36.56;100559.53;10448732;28;20488;-76
2023/07/08 20:15:59;;;;;;;8.23;5.53;;;;;;;27.50;37.04;100557.94;10444572;28;20049;-75
2023/07/08 20:21:02;;;;;;;7.93;5.18;;;;;;;27.41;36.90;100564.84;10449112;28;20119;-76
2023/07/08 20:26:18;;;;;;;7.75;5.35;;;;;;;27.33;37.07;100559.63;10450237;28;20037;-76
2023/07/08 20:31:23;;;;;;;9.80;5.13;;;;;;;27.22;37.32;100563.16;10456038;28;20048;-75
2023/07/08 20:36:28;;;;;;;11.93;5.75;;;;;;;27.09;37.77;100559.47;10442022;28;20060;-75
2023/07/08 20:41:33;;;;;;;10.27;6.45;;;;;;;26.97;37.98;100560.47;10441031;28;20475;-75
2023/07/08 20:46:37;;;;;;;7.47;5.50;;;;;;;26.77;37.97;100567.00;10442097;28;20049;-76
2023/07/08 20:51:40;;;;;;;8.02;5.85;;;;;;;26.65;38.54;100561.38;10449809;28;20415;-75
2023/07/08 20:56:43;;;;;;;10.68;6.53;;;;;;;26.53;39.05;100560.44;10442746;28;20048;-75
2023/07/08 21:01:51;;;;;;;7.35;5.72;;;;;;;26.41;39.51;100563.09;10461527;28;20049;-75
2023/07/08 21:06:54;;;;;;;11.85;6.07;;;;;;;26.34;39.64;100566.97;10459772;28;20052;-76
2023/07/08 21:11:57;;;;;;;7.32;5.40;;;;;;;26.18;40.02;100568.34;10452622;28;20484;-76
2023/07/08 21:17:01;;;;;;;7.47;5.40;;;;;;;26.04;40.26;100567.59;10451214;28;20041;-75
2023/07/08 21:22:05;;;;;;;8.88;5.53;;;;;;;25.96;40.67;100559.59;10447086;28;20063;-75
2023/07/08 21:27:20;;;;;;;7.60;5.10;;;;;;;25.82;41.05;100567.94;10444786;28;20045;-75
2023/07/08 21:32:24;;;;;;;8.35;5.63;;;;;;;25.72;41.38;100574.97;10444282;28;20041;-75
2023/07/08 21:37:27;;;;;;;6.40;5.80;;;;;;;25.71;41.35;100563.13;10447781;28;20049;-76
2023/07/08 21:42:30;;;;;;;8.18;5.70;;;;;;;25.67;41.46;100567.41;10448055;28;20040;-74
2023/07/08 21:47:34;;;;;;;6.57;5.20;;;;;;;25.65;41.80;100572.28;10452578;28;20049;-75
2023/07/08 21:52:37;;;;;;;6.57;5.43;;;;;;;25.50;42.27;100567.00;10452743;28;20136;-75
2023/07/08 21:57:40;;;;;;;9.00;5.53;;;;;;;25.38;43.16;100574.28;10453074;28;20068;-75
2023/07/08 22:02:47;;;;;;;8.07;5.35;;;;;;;25.18;44.07;100580.69;10447750;28;20045;-75
2023/07/08 22:07:51;;;;;;;6.45;5.85;;;;;;;25.07;44.99;100581.34;10448084;28;20094;-74
2023/07/08 22:12:53;;;;;;;8.98;5.40;;;;;;;24.84;45.35;100586.44;10438179;28;20044;-76
2023/07/08 22:17:59;;;;;;;7.80;5.43;;;;;;;24.73;45.78;100593.41;10446872;28;20133;-74
2023/07/08 22:23:02;;;;;;;8.82;6.22;;;;;;;24.74;45.63;100595.13;10444821;28;20037;-74
2023/07/08 22:28:06;;;;;;;6.30;5.55;;;;;;;24.69;45.53;100600.41;10443465;28;20049;-73
2023/07/08 22:33:11;;;;;;;9.57;5.65;;;;;;;24.50;45.62;100599.34;10442606;28;20033;-74
2023/07/08 22:38:15;;;;;;;8.82;6.03;;;;;;;23.95;45.77;100609.59;10443493;28;20044;-75
2023/07/08 22:43:25;;;;;;;10.48;5.78;;;;;;;23.18;46.80;100608.84;10443194;28;20484;-76
2023/07/08 22:48:29;;;;;;;8.35;5.43;;;;;;;22.73;47.78;100631.03;10444193;28;20381;-75
2023/07/08 22:53:37;;;;;;;7.75;5.68;;;;;;;22.88;46.97;100616.41;10442959;28;20098;-76
2023/07/08 22:58:40;;;;;;;7.63;6.38;;;;;;;23.38;46.23;100619.91;10437683;28;20463;-75
2023/07/08 23:03:44;;;;;;;11.85;8.48;;;;;;;22.91;46.50;100636.00;10437687;28;20033;-75
2023/07/08 23:08:47;;;;;;;9.50;7.20;;;;;;;22.65;47.80;100638.53;10449149;28;20069;-75
2023/07/08 23:13:50;;;;;;;12.25;8.60;;;;;;;22.84;47.61;100631.53;10440846;28;20095;-75
2023/07/08 23:18:54;;;;;;;9.43;7.03;;;;;;;23.19;46.31;100636.00;10444145;28;20045;-76
2023/07/08 23:23:57;;;;;;;11.50;8.20;;;;;;;23.32;47.25;100637.16;10444399;28;20072;-75